createdAt,value
2022-10-23T00:01:51.442Z,6.60
2022-10-23T00:04:22.195Z,6.60
2022-10-23T00:06:51.489Z,6.70
2022-10-23T00:09:24.203Z,6.70
2022-10-23T00:11:54.264Z,6.70
2022-10-23T00:14:26.246Z,6.70
2022-10-23T00:16:55.972Z,6.70
2022-10-23T00:19:26.030Z,6.70
2022-10-23T00:21:54.451Z,6.70
2022-10-23T00:24:24.528Z,6.70
2022-10-23T00:26:53.136Z,6.70
2022-10-23T00:29:22.895Z,6.70
2022-10-23T00:31:51.542Z,6.70
2022-10-23T00:34:20.221Z,6.70
2022-10-23T00:36:48.856Z,6.70
2022-10-23T00:39:17.524Z,6.80
2022-10-23T00:41:50.787Z,6.80
2022-10-23T00:44:58.880Z,6.80
2022-10-23T00:47:28.075Z,6.80
2022-10-23T00:49:56.909Z,6.90
2022-10-23T00:52:25.467Z,6.90
2022-10-23T00:54:54.156Z,6.90
2022-10-23T00:57:24.254Z,6.90
2022-10-23T00:59:53.871Z,6.90
2022-10-23T01:02:22.608Z,6.90
2022-10-23T01:04:51.887Z,6.90
2022-10-23T01:07:28.926Z,6.90
2022-10-23T01:10:04.870Z,6.90
2022-10-23T01:12:41.741Z,6.90
2022-10-23T01:15:18.003Z,6.90
2022-10-23T01:17:51.843Z,7.00
2022-10-23T01:20:32.337Z,7.00
2022-10-23T01:23:39.921Z,7.00
2022-10-23T01:26:31.153Z,7.00
2022-10-23T01:29:08.443Z,7.00
2022-10-23T01:31:41.179Z,7.00
2022-10-23T01:34:13.738Z,7.00
2022-10-23T01:36:50.142Z,7.00
2022-10-23T01:39:25.279Z,7.00
2022-10-23T01:41:57.223Z,7.10
2022-10-23T01:44:36.107Z,7.10
2022-10-23T01:47:07.438Z,7.00
2022-10-23T01:49:47.939Z,7.10
2022-10-23T01:52:19.009Z,7.10
2022-10-23T01:54:52.958Z,7.00
2022-10-23T01:57:23.782Z,7.10
2022-10-23T02:00:02.917Z,7.00
2022-10-23T02:02:32.355Z,7.00
2022-10-23T02:05:07.971Z,7.10
2022-10-23T02:07:37.593Z,7.10
2022-10-23T02:10:07.835Z,7.10
2022-10-23T02:12:50.159Z,7.10
2022-10-23T02:15:28.228Z,7.00
2022-10-23T02:18:05.100Z,7.10
2022-10-23T02:20:40.784Z,7.10
2022-10-23T02:23:18.988Z,7.10
2022-10-23T02:25:52.975Z,7.10
2022-10-23T02:28:27.718Z,7.10
2022-10-23T02:31:03.215Z,7.10
2022-10-23T02:33:34.883Z,7.10
2022-10-23T02:36:03.937Z,7.10
2022-10-23T02:38:35.647Z,7.00
2022-10-23T02:41:24.758Z,7.10
2022-10-23T02:44:04.871Z,7.10
2022-10-23T02:46:46.772Z,7.10
2022-10-23T02:49:20.025Z,7.00
2022-10-23T02:52:00.202Z,7.10
2022-10-23T02:54:43.067Z,7.10
2022-10-23T02:57:21.058Z,7.10
2022-10-23T02:59:58.994Z,7.10
2022-10-23T03:02:37.161Z,7.10
2022-10-23T03:05:12.657Z,7.10
2022-10-23T03:07:42.540Z,7.10
2022-10-23T03:10:12.693Z,7.10
2022-10-23T03:12:41.708Z,7.10
2022-10-23T03:15:12.816Z,7.10
2022-10-23T03:17:43.429Z,7.10
2022-10-23T03:20:12.989Z,7.10
2022-10-23T03:22:41.678Z,7.10
2022-10-23T03:25:11.027Z,7.10
2022-10-23T03:27:39.938Z,7.20
2022-10-23T03:30:12.517Z,7.20
2022-10-23T03:32:44.185Z,7.20
2022-10-23T03:35:15.316Z,7.20
2022-10-23T03:37:44.159Z,7.20
2022-10-23T03:40:14.045Z,7.20
2022-10-23T03:42:42.755Z,7.20
2022-10-23T03:45:14.884Z,7.20
2022-10-23T03:47:45.560Z,7.30
2022-10-23T03:50:15.517Z,7.30
2022-10-23T03:52:44.543Z,7.20
2022-10-23T03:55:14.915Z,7.30
2022-10-23T03:57:43.672Z,7.30
2022-10-23T04:00:13.263Z,7.30
2022-10-23T04:02:50.965Z,7.20
2022-10-23T04:05:19.917Z,7.20
2022-10-23T04:07:56.032Z,7.20
2022-10-23T04:10:25.222Z,7.20
2022-10-23T04:12:53.808Z,7.20
2022-10-23T04:15:22.513Z,7.20
2022-10-23T04:17:52.557Z,7.20
2022-10-23T04:20:21.685Z,7.20
2022-10-23T04:22:50.339Z,7.20
2022-10-23T04:25:19.191Z,7.20
2022-10-23T04:27:47.845Z,7.20
2022-10-23T04:30:16.531Z,7.20
2022-10-23T04:32:47.499Z,7.20
2022-10-23T04:35:18.891Z,7.20
2022-10-23T04:37:48.261Z,7.20
2022-10-23T04:40:16.993Z,7.20
2022-10-23T04:42:45.822Z,7.20
2022-10-23T04:45:15.433Z,7.20
2022-10-23T04:47:44.346Z,7.20
2022-10-23T04:50:13.172Z,7.30
2022-10-23T04:53:02.046Z,7.30
2022-10-23T04:55:36.373Z,7.30
2022-10-23T04:58:18.303Z,7.30
2022-10-23T05:00:47.170Z,7.30
2022-10-23T05:03:23.449Z,7.30
2022-10-23T05:05:53.959Z,7.30
2022-10-23T05:08:46.773Z,7.30
2022-10-23T05:11:18.744Z,7.30
2022-10-23T05:13:50.233Z,7.30
2022-10-23T05:16:30.054Z,7.30
2022-10-23T05:18:59.991Z,7.30
2022-10-23T05:21:31.325Z,7.30
2022-10-23T05:24:02.827Z,7.30
2022-10-23T05:26:33.292Z,7.30
2022-10-23T05:29:07.605Z,7.30
2022-10-23T05:31:37.827Z,7.40
2022-10-23T05:34:14.405Z,7.40
2022-10-23T05:36:46.540Z,7.40
2022-10-23T05:39:18.189Z,7.40
2022-10-23T05:41:48.031Z,7.40
2022-10-23T05:44:22.260Z,7.40
2022-10-23T05:47:29.626Z,7.40
2022-10-23T05:50:19.143Z,7.50
2022-10-23T05:53:01.112Z,7.50
2022-10-23T05:55:49.760Z,7.50
2022-10-23T05:58:37.080Z,7.50
2022-10-23T06:01:29.474Z,7.50
2022-10-23T06:04:06.338Z,7.50
2022-10-23T06:06:57.369Z,7.50
2022-10-23T06:09:26.987Z,7.60
2022-10-23T06:12:02.945Z,7.60
2022-10-23T06:14:33.854Z,7.60
2022-10-23T06:17:02.505Z,7.60
2022-10-23T06:19:31.320Z,7.60
2022-10-23T06:22:00.023Z,7.60
2022-10-23T06:24:44.919Z,7.60
2022-10-23T06:27:16.919Z,7.60
2022-10-23T06:29:47.780Z,7.60
2022-10-23T06:32:16.712Z,7.70
2022-10-23T06:34:53.438Z,7.70
2022-10-23T06:37:22.093Z,7.70
2022-10-23T06:40:07.985Z,7.70
2022-10-23T06:43:01.825Z,7.70
2022-10-23T06:45:35.053Z,7.80
2022-10-23T06:48:16.477Z,7.80
2022-10-23T06:51:17.972Z,7.80
2022-10-23T06:53:47.267Z,7.80
2022-10-23T06:56:39.666Z,7.90
2022-10-23T06:59:12.032Z,7.90
2022-10-23T07:01:41.252Z,7.90
2022-10-23T07:04:13.723Z,8.00
2022-10-23T07:06:43.313Z,8.00
2022-10-23T07:09:12.444Z,8.10
2022-10-23T07:11:53.391Z,8.20
2022-10-23T07:14:32.328Z,8.30
2022-10-23T07:17:03.266Z,8.50
2022-10-23T07:19:32.008Z,8.70
2022-10-23T07:22:05.745Z,8.90
2022-10-23T07:24:44.347Z,9.00
2022-10-23T07:27:21.645Z,9.10
2022-10-23T07:29:58.265Z,9.20
2022-10-23T07:35:19.053Z,9.20
2022-10-23T07:40:25.931Z,9.60
2022-10-23T07:42:58.279Z,9.70
2022-10-23T07:45:29.344Z,9.60
2022-10-23T07:47:59.254Z,9.60
2022-10-23T07:50:39.557Z,9.60
2022-10-23T07:55:54.818Z,9.60
2022-10-23T07:58:24.764Z,9.70
2022-10-23T08:01:18.671Z,9.80
2022-10-23T10:18:44.023Z,10.10
2022-10-23T10:23:51.706Z,10.40
2022-10-23T10:26:36.136Z,10.50
2022-10-23T10:29:18.346Z,10.50
2022-10-23T10:45:21.427Z,10.50
2022-10-23T10:48:22.493Z,10.50
2022-10-23T10:51:30.114Z,10.50
2022-10-23T10:54:17.468Z,10.40
2022-10-23T10:56:48.734Z,10.60
2022-10-23T11:04:35.468Z,10.50
2022-10-23T11:07:14.146Z,10.40
2022-10-23T11:09:47.655Z,10.30
2022-10-23T11:12:23.152Z,10.30
2022-10-23T11:14:52.770Z,10.30
2022-10-23T11:17:27.155Z,10.30
2022-10-23T11:25:25.595Z,10.10
2022-10-23T11:36:21.431Z,10.00
2022-10-23T11:44:01.839Z,10.00
2022-10-23T11:46:36.372Z,10.10
2022-10-23T11:49:07.818Z,10.20
2022-10-23T11:51:38.442Z,10.10
2022-10-23T11:56:39.489Z,9.90
2022-10-23T12:01:55.094Z,10.00
2022-10-23T12:04:27.820Z,10.10
2022-10-23T12:07:00.923Z,10.10
2022-10-23T12:09:36.252Z,10.10
2022-10-23T12:12:29.618Z,10.10
2022-10-23T12:15:21.648Z,10.00
2022-10-23T12:17:52.506Z,10.10
2022-10-23T12:20:38.020Z,10.10
2022-10-23T12:23:48.386Z,10.40
2022-10-23T12:29:16.784Z,10.60
2022-10-23T12:31:53.570Z,10.20
2022-10-23T12:34:37.618Z,10.20
2022-10-23T12:37:20.046Z,9.90
2022-10-23T12:39:54.464Z,10.20
2022-10-23T12:42:26.050Z,10.30
2022-10-23T12:45:05.943Z,10.20
2022-10-23T12:47:34.791Z,10.20
2022-10-23T12:50:03.469Z,9.90
2022-10-23T12:52:35.390Z,9.60
2022-10-23T12:57:46.295Z,10.50
2022-10-23T13:00:20.581Z,10.10
2022-10-23T13:05:29.429Z,9.90
2022-10-23T13:10:44.154Z,9.70
2022-10-23T13:15:46.732Z,9.80
2022-10-23T13:18:16.763Z,10.00
2022-10-23T13:20:57.140Z,10.10
2022-10-23T13:23:31.348Z,9.90
2022-10-23T13:26:02.139Z,9.80
2022-10-23T13:31:25.448Z,9.70
2022-10-23T13:34:07.030Z,9.70
2022-10-23T13:36:39.656Z,10.20
2022-10-23T13:39:16.564Z,9.80
2022-10-23T13:41:47.999Z,9.70
2022-10-23T13:44:20.661Z,9.20
2022-10-23T13:46:53.731Z,9.60
2022-10-23T13:49:22.413Z,9.70
2022-10-23T13:56:55.785Z,9.30
2022-10-23T14:01:57.349Z,9.50
2022-10-23T14:04:28.154Z,9.30
2022-10-23T14:09:27.731Z,9.50
2022-10-23T14:11:57.476Z,9.50
2022-10-23T14:14:26.105Z,9.40
2022-10-23T14:16:58.077Z,9.70
2022-10-23T14:19:26.812Z,9.50
2022-10-23T14:21:55.725Z,9.50
2022-10-23T14:24:24.476Z,9.50
2022-10-23T14:26:57.664Z,9.60
2022-10-23T14:29:26.485Z,9.50
2022-10-23T14:31:58.998Z,9.60
2022-10-23T14:34:27.678Z,9.40
2022-10-23T14:37:07.999Z,9.40
2022-10-23T14:39:37.941Z,9.50
2022-10-23T14:42:06.752Z,9.70
2022-10-23T14:44:35.424Z,9.40
2022-10-23T14:47:05.660Z,9.60
2022-10-23T14:49:36.878Z,9.30
2022-10-23T14:52:07.942Z,9.30
2022-10-23T14:57:07.449Z,9.20
2022-10-23T14:59:36.236Z,9.30
2022-10-23T15:02:07.719Z,9.30
2022-10-23T15:04:36.548Z,9.30
2022-10-23T15:07:05.128Z,9.30
2022-10-23T15:09:36.413Z,9.40
2022-10-23T15:12:05.761Z,9.30
2022-10-23T15:14:34.458Z,9.30
2022-10-23T15:17:04.351Z,9.30
2022-10-23T15:19:34.375Z,9.30
2022-10-23T15:22:03.156Z,9.30
2022-10-23T15:24:31.862Z,9.30
2022-10-23T15:32:00.571Z,9.10
2022-10-23T15:34:30.884Z,9.50
2022-10-23T15:37:01.498Z,9.40
2022-10-23T15:39:33.988Z,9.20
2022-10-23T15:42:03.696Z,9.30
2022-10-23T15:44:33.969Z,9.40
2022-10-23T15:47:02.839Z,9.30
2022-10-23T15:49:31.671Z,9.30
2022-10-23T15:52:02.443Z,9.30
2022-10-23T15:54:32.875Z,9.30
2022-10-23T15:57:02.683Z,9.30
2022-10-23T15:59:32.866Z,9.30
2022-10-23T16:02:01.685Z,9.30
2022-10-23T16:04:31.017Z,9.30
2022-10-23T16:07:01.084Z,9.30
2022-10-23T16:09:30.468Z,9.30
2022-10-23T16:11:59.162Z,9.30
2022-10-23T16:14:27.741Z,9.40
2022-10-23T16:16:56.420Z,9.30
2022-10-23T16:19:25.491Z,9.30
2022-10-23T16:21:54.228Z,9.30
2022-10-23T16:24:24.266Z,9.30
2022-10-23T16:26:53.509Z,9.30
2022-10-23T16:29:23.795Z,9.40
2022-10-23T16:31:52.622Z,9.30
2022-10-23T16:34:21.853Z,9.40
2022-10-23T16:36:50.843Z,9.40
2022-10-23T16:39:32.693Z,9.40
2022-10-23T16:42:20.249Z,9.30
2022-10-23T16:45:04.331Z,9.40
2022-10-23T16:47:34.100Z,9.30
2022-10-23T16:50:02.686Z,9.30
2022-10-23T16:52:31.485Z,9.30
2022-10-23T16:55:01.853Z,9.30
2022-10-23T16:57:30.905Z,9.30
2022-10-23T16:59:59.541Z,9.30
2022-10-23T17:02:28.364Z,9.30
2022-10-23T17:04:57.144Z,9.30
2022-10-23T17:07:26.701Z,9.30
2022-10-23T17:09:55.035Z,9.50
2022-10-23T17:12:25.097Z,9.20
2022-10-23T17:14:53.805Z,9.10
2022-10-23T17:17:22.395Z,9.10
2022-10-23T17:19:51.002Z,9.10
2022-10-23T17:22:19.580Z,9.10
2022-10-23T17:24:51.437Z,9.00
2022-10-23T17:27:26.544Z,8.70
2022-10-23T17:29:55.301Z,9.00
2022-10-23T17:32:26.089Z,9.30
2022-10-23T17:34:54.869Z,9.00
2022-10-23T17:37:23.513Z,8.80
2022-10-23T17:39:52.210Z,9.00
2022-10-23T17:42:20.834Z,8.90
2022-10-23T17:44:50.838Z,8.70
2022-10-23T17:47:19.490Z,9.30
2022-10-23T17:49:48.099Z,8.90
2022-10-23T17:52:16.869Z,8.90
2022-10-23T17:54:45.496Z,8.90
2022-10-23T17:59:43.211Z,8.80
2022-10-23T18:02:14.601Z,8.80
2022-10-23T18:04:43.381Z,8.80
2022-10-23T18:07:13.179Z,8.70
2022-10-23T18:09:41.780Z,8.70
2022-10-23T18:12:10.453Z,8.70
2022-10-23T18:14:39.205Z,8.70
2022-10-23T18:17:07.883Z,8.70
2022-10-23T18:19:37.955Z,8.60
2022-10-23T18:22:06.684Z,8.70
2022-10-23T18:24:36.137Z,8.70
2022-10-23T18:27:05.122Z,8.60
2022-10-23T18:29:33.876Z,8.60
2022-10-23T18:32:02.503Z,8.60
2022-10-23T18:34:31.267Z,8.60
2022-10-23T18:37:01.983Z,8.60
2022-10-23T18:39:30.769Z,8.50
2022-10-23T18:42:00.284Z,8.50
2022-10-23T18:44:29.701Z,8.60
2022-10-23T18:47:00.052Z,8.60
2022-10-23T18:49:29.686Z,8.60
2022-10-23T18:51:58.480Z,8.60
2022-10-23T18:54:28.587Z,8.60
2022-10-23T18:56:57.404Z,8.60
2022-10-23T18:59:26.106Z,8.60
2022-10-23T19:01:54.901Z,8.50
2022-10-23T19:04:23.605Z,8.60
2022-10-23T19:06:52.480Z,8.60
2022-10-23T19:09:21.747Z,8.60
2022-10-23T19:11:51.876Z,8.60
2022-10-23T19:14:20.487Z,8.50
2022-10-23T19:16:59.404Z,8.60
2022-10-23T19:19:31.757Z,8.60
2022-10-23T19:22:03.502Z,8.70
2022-10-23T19:24:38.205Z,8.70
2022-10-23T19:27:08.708Z,8.70
2022-10-23T19:29:39.740Z,8.70
2022-10-23T19:32:09.076Z,8.60
2022-10-23T19:34:38.033Z,8.60
2022-10-23T19:37:07.040Z,8.60
2022-10-23T19:39:35.645Z,8.60
2022-10-23T19:42:05.524Z,8.70
2022-10-23T19:44:35.664Z,8.70
2022-10-23T19:47:04.725Z,8.80
2022-10-23T19:49:33.557Z,8.90
2022-10-23T19:52:02.276Z,8.90
2022-10-23T19:54:30.835Z,8.90
2022-10-23T19:56:59.736Z,9.00
2022-10-23T19:59:28.695Z,8.90
2022-10-23T20:01:58.995Z,8.90
2022-10-23T20:04:29.012Z,8.90
2022-10-23T20:06:57.969Z,9.00
2022-10-23T20:09:26.717Z,8.90
2022-10-23T20:11:55.898Z,9.00
2022-10-23T20:14:24.657Z,8.90
2022-10-23T20:16:55.867Z,8.90
2022-10-23T20:19:26.270Z,8.90
2022-10-23T20:21:54.852Z,8.90
2022-10-23T20:24:23.504Z,8.90
2022-10-23T20:26:54.799Z,8.90
2022-10-23T20:29:24.829Z,8.90
2022-10-23T20:31:53.587Z,8.90
2022-10-23T20:34:25.014Z,8.90
2022-10-23T20:36:55.360Z,8.90
2022-10-23T20:39:26.643Z,8.90
2022-10-23T20:41:56.483Z,8.90
2022-10-23T20:44:26.372Z,9.00
2022-10-23T20:46:55.439Z,9.00
2022-10-23T20:49:24.777Z,9.00
2022-10-23T20:51:56.459Z,9.00
2022-10-23T20:54:27.716Z,9.00
2022-10-23T20:56:58.942Z,8.90
2022-10-23T20:59:27.692Z,8.90
2022-10-23T21:01:57.394Z,8.90
2022-10-23T21:04:28.046Z,8.90
2022-10-23T21:07:16.428Z,8.80
2022-10-23T21:09:45.350Z,8.80
2022-10-23T21:12:14.550Z,8.80
2022-10-23T21:14:43.340Z,8.80
2022-10-23T21:17:16.815Z,8.80
2022-10-23T21:19:45.588Z,8.70
2022-10-23T21:22:15.557Z,8.70
2022-10-23T21:24:44.257Z,8.70
2022-10-23T21:27:12.859Z,8.70
2022-10-23T21:29:41.546Z,8.70
2022-10-23T21:32:10.155Z,8.60
2022-10-23T21:34:38.846Z,8.60
2022-10-23T21:37:15.075Z,8.60
2022-10-23T21:39:46.080Z,8.60
2022-10-23T21:42:15.412Z,8.50
2022-10-23T21:44:44.240Z,8.50
2022-10-23T21:47:13.354Z,8.40
2022-10-23T21:49:41.949Z,8.50
2022-10-23T21:52:10.654Z,8.40
2022-10-23T21:54:39.606Z,8.30
2022-10-23T21:57:15.558Z,8.50
2022-10-23T21:59:44.520Z,8.50
2022-10-23T22:04:43.468Z,8.50
2022-10-23T22:07:15.027Z,8.30
2022-10-23T22:09:46.697Z,8.30
2022-10-23T22:12:16.729Z,8.40
2022-10-23T22:14:45.389Z,8.40
2022-10-23T22:17:13.979Z,8.40
2022-10-23T22:19:43.047Z,8.40
2022-10-23T22:22:11.736Z,8.70
2022-10-23T22:24:40.385Z,8.40
2022-10-23T22:27:09.063Z,8.30
2022-10-23T22:29:39.184Z,8.30
2022-10-23T22:32:07.972Z,8.40
2022-10-23T22:34:53.318Z,8.30
2022-10-23T22:37:22.413Z,8.40
2022-10-23T22:39:52.739Z,8.30
2022-10-23T22:42:21.508Z,8.30
2022-10-23T22:44:51.521Z,8.30
2022-10-23T22:47:20.129Z,8.30
2022-10-23T22:49:48.891Z,8.30
2022-10-23T22:52:17.497Z,8.30
2022-10-23T22:54:46.091Z,8.30
2022-10-23T22:57:14.708Z,8.30
2022-10-23T22:59:43.362Z,8.30
2022-10-23T23:02:13.350Z,8.30
2022-10-23T23:04:42.005Z,8.30
2022-10-23T23:07:12.795Z,8.30
2022-10-23T23:09:43.350Z,8.40
2022-10-23T23:12:13.743Z,8.30
2022-10-23T23:14:42.976Z,8.30
2022-10-23T23:17:13.566Z,8.30
2022-10-23T23:19:42.201Z,7.90
2022-10-23T23:22:11.232Z,8.30
2022-10-23T23:24:39.783Z,8.20
2022-10-23T23:27:08.376Z,8.30
2022-10-23T23:29:37.057Z,8.20
2022-10-23T23:32:06.368Z,8.30
2022-10-23T23:34:36.474Z,8.30
2022-10-23T23:37:05.167Z,8.30
2022-10-23T23:39:33.751Z,8.20
2022-10-23T23:42:02.393Z,8.30
2022-10-23T23:44:30.950Z,8.30
2022-10-23T23:46:59.725Z,8.20
2022-10-23T23:49:29.680Z,8.20
2022-10-23T23:51:59.696Z,8.20
2022-10-23T23:54:29.462Z,8.20
2022-10-23T23:56:59.978Z,8.20
2022-10-23T23:59:28.719Z,8.10
